Time;durP1;ratioP1;P1;durP2;ratioP2;P2;SDS_P1;SDS_P2;PMS_P1;PMS_P2;Temp;Humidity;BMP_temperature;BMP_pressure;BME280_temperature;BME280_humidity;BME280_pressure;Samples;Min_cycle;Max_cycle;Signal;HPM_P1;HPM_P2
2023/07/28 00:00:06;;;;;;;3.17;2.75;;;;;;;17.62;77.16;94968.84;4828148;29;20680;-87
2023/07/28 00:02:37;;;;;;;3.03;2.65;;;;;;;17.64;77.71;94961.56;4839504;29;20219;-88
2023/07/28 00:05:16;;;;;;;4.60;2.85;;;;;;;17.68;76.70;94966.22;4842742;29;20261;-87
2023/07/28 00:07:50;;;;;;;4.40;2.75;;;;;;;17.60;77.74;94969.03;4841113;29;20200;-87
2023/07/28 00:10:42;;;;;;;2.85;2.65;;;;;;;17.69;77.27;94970.44;4841975;29;20249;-87
2023/07/28 00:13:20;;;;;;;3.75;2.70;;;;;;;17.77;76.72;94964.19;4835413;29;20289;-88
2023/07/28 00:19:44;;;;;;;3.15;2.85;;;;;;;17.77;76.82;94962.38;4847455;29;20269;-88
2023/07/28 00:22:35;;;;;;;4.32;2.85;;;;;;;17.77;76.89;94949.25;4855183;29;20259;-87
2023/07/28 00:25:10;;;;;;;3.08;2.55;;;;;;;17.82;76.44;94951.25;4826050;29;20284;-87
2023/07/28 00:27:48;;;;;;;3.65;2.75;;;;;;;17.87;76.90;94946.19;4846789;29;20204;-87
2023/07/28 00:30:47;;;;;;;5.68;3.00;;;;;;;17.83;76.52;94956.28;4829857;29;20203;-87
2023/07/28 00:33:24;;;;;;;3.30;2.53;;;;;;;17.94;76.41;94951.41;4831494;29;20225;-87
2023/07/28 00:36:27;;;;;;;3.55;2.97;;;;;;;17.95;76.33;94955.66;4820756;29;20192;-87
2023/07/28 00:39:04;;;;;;;3.78;2.80;;;;;;;17.93;76.43;94952.41;4827483;29;20287;-87
2023/07/28 00:42:12;;;;;;;4.00;2.88;;;;;;;17.93;76.00;94952.41;4815909;29;20208;-87
2023/07/28 00:45:25;;;;;;;3.33;3.03;;;;;;;17.82;76.86;94951.25;4836342;29;20754;-87
2023/07/28 00:47:54;;;;;;;5.57;3.20;;;;;;;17.79;76.94;94949.03;4780753;30;20215;-88
2023/07/28 00:50:34;;;;;;;4.25;2.75;;;;;;;17.72;76.91;94943.00;4772692;30;20211;-87
2023/07/28 00:53:08;;;;;;;3.80;2.60;;;;;;;17.67;77.33;94935.72;4761242;30;20314;-87
2023/07/28 00:55:54;;;;;;;4.05;3.00;;;;;;;17.66;76.99;94938.53;4751252;30;20227;-87
2023/07/28 00:58:27;;;;;;;4.40;3.30;;;;;;;17.55;77.24;94942.59;4755083;30;20225;-87
2023/07/28 01:01:08;;;;;;;3.33;2.97;;;;;;;17.59;77.76;94949.06;4775270;29;20314;-87
2023/07/28 01:03:58;;;;;;;3.35;2.70;;;;;;;17.54;77.40;94952.28;4789764;29;20215;-90
2023/07/28 01:06:55;;;;;;;3.58;2.97;;;;;;;17.45;78.39;94952.72;4793972;29;20215;-90
2023/07/28 01:09:28;;;;;;;3.20;2.90;;;;;;;17.44;78.88;94948.47;4771594;29;20307;-88
2023/07/28 01:12:23;;;;;;;3.42;2.95;;;;;;;17.45;78.53;94947.47;4761986;29;20211;-87
2023/07/28 01:14:54;;;;;;;3.08;2.70;;;;;;;17.45;78.90;94950.88;4768185;30;20203;-87
2023/07/28 01:17:37;;;;;;;3.45;2.55;;;;;;;17.31;79.05;94944.03;4771294;30;20200;-87
2023/07/28 01:20:13;;;;;;;3.50;2.53;;;;;;;17.32;79.02;94942.25;4801840;29;20220;-88
2023/07/28 01:23:00;;;;;;;2.88;2.67;;;;;;;17.31;79.25;94944.03;4875229;29;20231;-90
2023/07/28 01:25:56;;;;;;;4.93;3.10;;;;;;;17.30;79.18;94945.03;4854455;29;20198;-88
2023/07/28 01:29:05;;;;;;;2.95;2.65;;;;;;;17.30;79.09;94939.00;4850111;29;20210;-87
2023/07/28 01:31:36;;;;;;;3.45;2.78;;;;;;;17.25;78.86;94935.19;4829179;29;20741;-88
2023/07/28 01:34:07;;;;;;;4.10;2.85;;;;;;;17.24;78.85;94944.06;4844509;29;20220;-87
2023/07/28 01:36:36;;;;;;;3.33;2.67;;;;;;;17.23;78.98;94934.56;4853716;29;20201;-87
2023/07/28 01:39:24;;;;;;;3.10;2.60;;;;;;;17.20;79.38;94934.16;4845778;29;20180;-87
2023/07/28 01:42:10;;;;;;;2.92;2.58;;;;;;;17.22;78.95;94935.56;4847239;29;20189;-87
2023/07/28 01:45:08;;;;;;;4.18;2.90;;;;;;;17.16;79.76;94932.97;4842817;29;20223;-87
2023/07/28 01:48:19;;;;;;;4.43;2.92;;;;;;;17.24;79.40;94924.88;4854137;29;20296;-87
2023/07/28 01:54:09;;;;;;;;;;;;;;;;;;;;;
2023/07/28 01:56:55;;;;;;;3.60;2.80;;;;;;;17.21;79.99;94933.16;4850561;29;20196;-88
2023/07/28 01:59:48;;;;;;;3.88;2.97;;;;;;;17.21;79.96;94938.38;4843186;29;20204;-88
2023/07/28 02:02:43;;;;;;;3.58;3.10;;;;;;;17.23;79.50;94929.31;4866083;29;20278;-89
2023/07/28 02:12:37;;;;;;;5.07;2.92;;;;;;;17.03;80.81;94931.13;4808459;29;20206;-88
2023/07/28 02:15:20;;;;;;;2.63;2.42;;;;;;;17.02;81.00;94916.41;4809585;29;20289;-88
2023/07/28 02:17:58;;;;;;;3.38;2.95;;;;;;;17.01;80.21;94924.50;4800292;29;20206;-87
2023/07/28 02:20:29;;;;;;;7.80;3.17;;;;;;;17.01;80.77;94921.88;4785165;29;20368;-90
2023/07/28 02:23:28;;;;;;;3.83;3.10;;;;;;;16.97;81.34;94924.09;4794137;29;20313;-88
2023/07/28 02:25:56;;;;;;;5.20;2.83;;;;;;;16.95;81.40;94932.13;4820518;29;20210;-89
2023/07/28 02:28:57;;;;;;;3.40;3.10;;;;;;;16.87;81.76;94929.75;4804673;29;20187;-91
2023/07/28 02:31:33;;;;;;;4.10;3.30;;;;;;;16.95;81.79;94936.59;4771867;29;20202;-88
2023/07/28 02:34:27;;;;;;;5.30;3.00;;;;;;;16.95;81.90;94939.19;4777165;30;20206;-89
2023/07/28 02:37:24;;;;;;;3.15;2.85;;;;;;;16.96;81.80;94935.56;4781445;29;20696;-88
2023/07/28 02:40:18;;;;;;;3.53;2.63;;;;;;;16.85;82.36;94936.19;4834286;29;20213;-88
2023/07/28 02:42:58;;;;;;;3.42;2.90;;;;;;;16.89;82.33;94926.91;4859438;29;20295;-88
2023/07/28 02:45:27;;;;;;;3.67;3.20;;;;;;;16.97;81.76;94942.47;4841812;29;20287;-87
2023/07/28 02:48:28;;;;;;;5.25;3.00;;;;;;;16.96;82.14;94941.66;4832332;29;20276;-87
2023/07/28 02:51:09;;;;;;;3.42;3.13;;;;;;;16.97;81.84;94961.63;4849727;29;20187;-87
2023/07/28 02:53:37;;;;;;;4.07;3.45;;;;;;;16.86;83.23;94966.63;4845352;29;20319;-87
2023/07/28 02:56:03;;;;;;;3.00;2.80;;;;;;;16.89;82.43;94968.88;4843083;29;20697;-87
2023/07/28 02:58:40;;;;;;;5.85;2.70;;;;;;;16.94;82.46;94969.88;4841216;29;20197;-88
2023/07/28 03:01:13;;;;;;;3.90;3.03;;;;;;;16.86;83.07;94966.63;4844900;29;20212;-88
2023/07/28 03:03:47;;;;;;;3.40;3.10;;;;;;;16.88;82.88;94962.81;4843647;29;20243;-89
2023/07/28 03:06:18;;;;;;;4.20;2.90;;;;;;;16.84;82.79;94969.47;4844554;29;20196;-88
2023/07/28 03:09:24;;;;;;;3.67;3.35;;;;;;;16.73;84.30;94977.91;4841205;29;20591;-88
2023/07/28 03:12:00;;;;;;;3.78;3.47;;;;;;;16.85;84.07;94986.00;4832745;29;20200;-88
2023/07/28 03:14:31;;;;;;;4.80;3.88;;;;;;;16.91;85.04;94985.22;4807941;29;20201;-88
2023/07/28 03:17:06;;;;;;;4.85;3.92;;;;;;;16.93;84.96;94989.25;4821507;29;20710;-88
2023/07/28 03:19:37;;;;;;;4.60;4.20;;;;;;;16.98;85.53;94992.09;4820935;29;20223;-88
2023/07/28 03:22:05;;;;;;;4.60;3.65;;;;;;;17.05;86.26;95002.59;4809677;29;20217;-87
2023/07/28 03:24:34;;;;;;;4.20;3.80;;;;;;;17.11;87.57;95006.22;4821622;29;20205;-88
2023/07/28 03:27:08;;;;;;;5.50;4.57;;;;;;;17.19;87.72;95012.06;4818964;29;20276;-87
2023/07/28 03:29:41;;;;;;;5.32;4.25;;;;;;;17.23;87.44;95025.59;4818822;29;20217;-87
2023/07/28 03:32:12;;;;;;;4.85;4.38;;;;;;;17.17;89.00;95018.53;4820570;29;20492;-87
2023/07/28 03:34:45;;;;;;;6.10;4.53;;;;;;;17.24;88.95;95021.97;4818514;29;20197;-87
2023/07/28 03:37:18;;;;;;;6.35;4.82;;;;;;;17.32;87.95;95016.53;4802758;29;20583;-87
2023/07/28 03:39:51;;;;;;;4.60;4.20;;;;;;;17.23;89.66;95018.53;4815436;29;20297;-87
2023/07/28 03:42:51;;;;;;;5.00;4.47;;;;;;;17.33;88.82;95017.31;4839369;29;20288;-87
2023/07/28 03:45:31;;;;;;;5.75;4.32;;;;;;;17.39;88.68;95009.44;4875378;29;20324;-89
2023/07/28 03:48:00;;;;;;;4.60;4.20;;;;;;;17.43;87.82;95008.03;4853194;29;20197;-89
2023/07/28 03:50:41;;;;;;;5.43;4.43;;;;;;;17.37;88.59;95015.91;4865279;29;20257;-89
2023/07/28 03:53:09;;;;;;;6.18;4.38;;;;;;;17.47;88.24;95013.66;4866134;29;20212;-89
2023/07/28 03:55:47;;;;;;;5.85;4.57;;;;;;;17.51;87.80;95012.28;4867821;29;20213;-89
2023/07/28 03:58:23;;;;;;;4.82;3.83;;;;;;;17.53;87.80;95010.25;4871288;29;20203;-89
2023/07/28 04:01:09;;;;;;;4.75;4.18;;;;;;;17.56;87.70;95008.00;4864274;29;20240;-88
2023/07/28 04:03:46;;;;;;;5.43;4.03;;;;;;;17.60;87.88;95012.88;4866670;29;20237;-86
2023/07/28 04:10:01;;;;;;;;;;;;;;;;;;;;;
2023/07/28 04:16:36;;;;;;;4.95;4.00;;;;;;;17.63;88.85;95002.75;4844322;29;20602;-87
2023/07/28 04:22:58;;;;;;;4.40;4.00;;;;;;;17.67;88.62;94993.47;4848487;29;20220;-88
2023/07/28 04:29:15;;;;;;;5.30;4.47;;;;;;;17.63;89.61;94994.06;4839910;29;20203;-88
2023/07/28 04:32:32;;;;;;;;;;;;;;;;;;;;;
2023/07/28 04:39:15;;;;;;;4.45;4.05;;;;;;;17.58;90.18;94997.34;4767452;30;20215;-88
2023/07/28 04:42:32;;;;;;;5.15;4.15;;;;;;;17.63;89.68;94989.63;4757535;30;20203;-88
2023/07/28 04:45:36;;;;;;;4.30;3.90;;;;;;;17.65;89.67;95002.53;4768192;30;20192;-87
2023/07/28 04:48:05;;;;;;;7.22;4.13;;;;;;;17.65;89.95;95005.97;4753202;30;20211;-83
2023/07/28 04:50:31;;;;;;;4.78;4.30;;;;;;;17.71;89.49;95013.06;4765559;30;20265;-79
2023/07/28 04:52:56;;;;;;;4.95;4.55;;;;;;;17.71;89.69;95005.19;4763869;30;20779;-79
2023/07/28 04:55:49;;;;;;;5.60;4.60;;;;;;;17.69;90.24;95001.16;4749756;30;20196;-83
2023/07/28 04:58:15;;;;;;;4.82;4.43;;;;;;;17.75;89.63;95002.97;4760818;30;20281;-84
2023/07/28 05:00:40;;;;;;;5.47;4.82;;;;;;;17.79;89.23;95007.63;4764542;30;20251;-83
2023/07/28 05:03:06;;;;;;;4.97;4.53;;;;;;;17.76;89.08;95012.47;4754569;30;20224;-84
2023/07/28 05:05:31;;;;;;;5.07;4.55;;;;;;;17.78;89.34;95013.88;4747629;30;20219;-84
2023/07/28 05:07:56;;;;;;;6.10;4.90;;;;;;;17.83;89.20;95023.75;4781853;29;20300;-84
2023/07/28 05:10:22;;;;;;;5.03;4.53;;;;;;;17.90;88.65;95023.75;4808772;29;20273;-84
2023/07/28 05:12:47;;;;;;;5.03;4.53;;;;;;;17.88;89.21;95016.09;4806491;29;20299;-84
2023/07/28 05:15:14;;;;;;;5.20;4.72;;;;;;;17.80;89.37;95016.28;4805875;29;20596;-85
2023/07/28 05:17:40;;;;;;;5.20;4.70;;;;;;;17.85;89.52;95020.94;4809061;29;20194;-87
2023/07/28 05:20:06;;;;;;;4.57;4.18;;;;;;;17.87;89.41;95018.91;4856027;29;20201;-87
2023/07/28 05:22:31;;;;;;;4.80;4.40;;;;;;;17.88;89.40;95025.78;4844096;29;20209;-86
2023/07/28 05:24:57;;;;;;;5.30;4.80;;;;;;;17.94;89.22;95030.22;4843762;29;20730;-85
2023/07/28 05:27:22;;;;;;;4.50;4.10;;;;;;;17.93;89.18;95026.75;4845087;29;20326;-86
2023/07/28 05:29:50;;;;;;;8.18;4.47;;;;;;;17.93;89.34;95023.34;4851696;29;20326;-86
2023/07/28 05:32:15;;;;;;;5.40;4.90;;;;;;;17.98;89.34;95034.03;4834062;29;20216;-86
2023/07/28 05:34:44;;;;;;;6.13;4.65;;;;;;;17.96;89.60;95038.69;4850831;29;20192;-86
2023/07/28 05:37:35;;;;;;;4.95;4.45;;;;;;;17.92;90.88;95043.53;4855072;29;20200;-81
2023/07/28 05:49:22;;;;;;;6.10;4.03;;;;;;;17.92;91.39;95037.47;4833570;29;20204;-82
2023/07/28 05:51:48;;;;;;;5.75;4.35;;;;;;;18.00;91.60;95040.69;4829321;29;20192;-84
2023/07/28 05:54:16;;;;;;;5.05;4.32;;;;;;;18.01;91.38;95046.75;4817636;29;20186;-84
2023/07/28 05:56:42;;;;;;;5.40;4.38;;;;;;;18.03;91.41;95050.81;4829187;29;20668;-83
2023/07/28 05:59:10;;;;;;;5.50;4.75;;;;;;;18.04;91.83;95052.44;4824170;29;20209;-85
2023/07/28 06:01:35;;;;;;;4.55;4.15;;;;;;;18.07;91.87;95056.44;4840232;29;20639;-84
2023/07/28 06:04:01;;;;;;;5.88;3.97;;;;;;;18.06;92.13;95049.59;4843732;29;20197;-83
2023/07/28 06:06:27;;;;;;;4.50;4.10;;;;;;;18.03;92.78;95057.88;4854912;29;20261;-84
2023/07/28 06:08:57;;;;;;;3.50;3.20;;;;;;;17.97;92.83;95058.69;4844388;29;20185;-84
2023/07/28 06:11:23;;;;;;;3.10;2.85;;;;;;;17.98;93.37;95058.50;4838911;29;20556;-84
2023/07/28 06:13:48;;;;;;;3.85;2.83;;;;;;;18.08;92.90;95053.63;4838762;29;20210;-84
2023/07/28 06:16:14;;;;;;;3.30;2.65;;;;;;;18.10;93.21;95059.47;4828763;29;20193;-84
2023/07/28 06:18:42;;;;;;;3.20;2.90;;;;;;;18.16;93.20;95057.03;4830267;29;20190;-84
2023/07/28 06:21:07;;;;;;;3.13;2.45;;;;;;;18.17;93.12;95062.09;4813007;29;20214;-85
2023/07/28 06:23:33;;;;;;;3.35;2.60;;;;;;;18.27;92.40;95066.91;4839491;29;20763;-84
2023/07/28 06:25:58;;;;;;;3.55;2.70;;;;;;;18.29;92.89;95063.09;4837126;29;20189;-85
2023/07/28 06:28:24;;;;;;;2.67;2.47;;;;;;;18.40;92.10;95045.84;4826246;29;20582;-85
2023/07/28 06:30:56;;;;;;;2.55;2.35;;;;;;;18.83;90.31;95045.28;4814077;29;20177;-84
2023/07/28 06:33:21;;;;;;;2.72;2.20;;;;;;;18.92;89.84;95050.09;4814142;29;20722;-84
2023/07/28 06:35:47;;;;;;;2.33;2.05;;;;;;;18.92;89.66;95055.34;4823897;29;20308;-85
2023/07/28 06:38:12;;;;;;;2.45;2.03;;;;;;;19.04;89.24;95067.84;4835605;29;20190;-83
2023/07/28 06:40:40;;;;;;;1.80;1.70;;;;;;;19.04;88.71;95073.09;4815804;29;20205;-84
2023/07/28 06:43:07;;;;;;;2.88;1.65;;;;;;;18.92;88.39;95073.78;4811464;29;20250;-84
2023/07/28 06:45:32;;;;;;;1.60;1.50;;;;;;;19.05;88.55;95079.97;4817867;29;20260;-84
2023/07/28 06:47:58;;;;;;;1.90;1.80;;;;;;;19.04;87.82;95084.41;4825897;29;20672;-83
2023/07/28 06:50:23;;;;;;;2.45;1.80;;;;;;;19.11;88.06;95079.13;4817223;29;20678;-83
2023/07/28 06:52:49;;;;;;;2.03;1.63;;;;;;;19.15;87.67;95086.38;4841442;29;20233;-82
2023/07/28 06:55:16;;;;;;;1.85;1.75;;;;;;;18.98;87.59;95085.25;4823230;29;20273;-83
2023/07/28 06:57:41;;;;;;;2.55;1.70;;;;;;;19.03;86.74;95082.00;4824744;29;20288;-83
2023/07/28 07:00:09;;;;;;;1.75;1.65;;;;;;;19.01;85.11;95076.97;4824258;29;20730;-82
2023/07/28 07:02:34;;;;;;;1.55;1.45;;;;;;;19.29;84.41;95076.59;4833402;29;20225;-84
2023/07/28 07:05:00;;;;;;;1.80;1.70;;;;;;;19.17;84.60;95083.53;4834903;29;20991;-84
2023/07/28 07:07:25;;;;;;;1.92;1.80;;;;;;;19.40;83.49;95083.78;4849768;29;20185;-85
2023/07/28 07:09:51;;;;;;;1.90;1.80;;;;;;;19.66;82.30;95080.19;4831851;29;20306;-85
2023/07/28 07:12:16;;;;;;;2.13;1.92;;;;;;;19.79;81.19;95087.19;4829427;29;20586;-85
2023/07/28 07:14:41;;;;;;;1.77;1.63;;;;;;;19.97;80.97;95089.06;4827312;29;20189;-84
2023/07/28 07:17:07;;;;;;;2.05;1.85;;;;;;;19.96;81.00;95093.50;4829635;29;20664;-83
2023/07/28 07:19:33;;;;;;;1.98;1.52;;;;;;;19.98;79.56;95088.84;4816891;29;20217;-84
2023/07/28 07:21:58;;;;;;;2.55;2.10;;;;;;;20.45;78.92;95094.47;4819062;29;20280;-83
2023/07/28 07:24:23;;;;;;;3.10;2.00;;;;;;;20.29;77.87;95105.56;4829134;29;20189;-84
2023/07/28 07:26:50;;;;;;;2.05;1.83;;;;;;;20.49;76.70;95100.91;4846921;29;20205;-83
2023/07/28 07:29:16;;;;;;;2.35;2.15;;;;;;;20.54;77.11;95102.91;4851414;29;20198;-83
2023/07/28 07:31:41;;;;;;;2.53;2.33;;;;;;;20.15;77.40;95099.63;4824383;29;20810;-84
2023/07/28 07:34:06;;;;;;;2.40;2.20;;;;;;;20.24;77.54;95100.16;4834482;29;20190;-84
2023/07/28 07:36:32;;;;;;;3.10;2.60;;;;;;;20.14;76.91;95107.72;4839766;29;20192;-85
2023/07/28 07:38:57;;;;;;;3.05;2.63;;;;;;;20.50;76.21;95104.38;4832037;29;20185;-84
2023/07/28 07:41:23;;;;;;;2.47;2.05;;;;;;;20.50;75.85;95109.66;4840024;29;20213;-84
2023/07/28 07:43:50;;;;;;;3.22;2.25;;;;;;;20.47;75.44;95110.06;4839889;29;20217;-83
2023/07/28 07:46:16;;;;;;;2.97;2.50;;;;;;;20.45;75.67;95115.56;4838790;29;20273;-84
2023/07/28 07:48:42;;;;;;;2.78;2.38;;;;;;;20.48;75.79;95117.75;4822570;29;20201;-83
2023/07/28 07:51:08;;;;;;;2.40;2.20;;;;;;;20.56;75.16;95119.31;4839195;29;20182;-83
2023/07/28 07:53:34;;;;;;;2.67;2.08;;;;;;;20.75;75.17;95123.53;4818782;29;20225;-80
2023/07/28 07:55:59;;;;;;;3.63;2.60;;;;;;;20.77;74.20;95126.00;4825998;29;20197;-84
2023/07/28 07:58:24;;;;;;;2.50;2.30;;;;;;;21.20;73.03;95121.38;4844650;29;20217;-84
2023/07/28 08:00:50;;;;;;;1.88;1.75;;;;;;;21.42;71.55;95134.09;4831738;29;20219;-84
2023/07/28 08:03:15;;;;;;;2.30;2.10;;;;;;;21.70;71.01;95136.94;4825726;29;20217;-83
2023/07/28 08:05:40;;;;;;;2.22;2.03;;;;;;;21.83;70.56;95133.28;4831435;29;20193;-85
2023/07/28 08:08:07;;;;;;;2.85;2.00;;;;;;;21.54;71.34;95136.78;4837427;29;20256;-85
2023/07/28 08:10:33;;;;;;;3.83;2.28;;;;;;;21.62;70.59;95139.09;4826863;29;20185;-84
2023/07/28 08:12:59;;;;;;;1.83;1.73;;;;;;;21.62;70.82;95147.81;4824960;29;20300;-83
2023/07/28 08:15:25;;;;;;;2.63;2.08;;;;;;;21.60;70.71;95143.81;4836123;29;20185;-85
2023/07/28 08:17:50;;;;;;;4.05;2.10;;;;;;;21.68;71.09;95148.75;4822712;29;20194;-85
2023/07/28 08:20:16;;;;;;;3.92;2.30;;;;;;;21.52;70.39;95150.22;4832599;29;20292;-84
2023/07/28 08:22:42;;;;;;;4.22;2.38;;;;;;;21.88;69.93;95153.75;4844462;29;20213;-84
2023/07/28 08:25:08;;;;;;;3.28;2.10;;;;;;;22.91;66.53;95153.22;4833838;29;20205;-85
2023/07/28 08:27:33;;;;;;;2.50;2.30;;;;;;;22.82;65.08;95154.59;4841151;29;20197;-84
2023/07/28 08:29:58;;;;;;;2.50;2.30;;;;;;;22.82;65.50;95165.97;4842988;29;20242;-84
2023/07/28 08:32:24;;;;;;;2.55;2.35;;;;;;;22.70;65.47;95157.22;4830874;29;20218;-84
2023/07/28 08:34:49;;;;;;;2.38;2.17;;;;;;;22.82;63.88;95154.59;4835304;29;20205;-85
2023/07/28 08:37:14;;;;;;;2.65;2.33;;;;;;;22.13;66.81;95151.75;4833494;29;20220;-85
2023/07/28 08:39:40;;;;;;;3.00;2.75;;;;;;;22.79;64.47;95155.88;4845819;29;21123;-83
2023/07/28 08:42:05;;;;;;;2.90;2.28;;;;;;;23.05;64.07;95153.75;4840839;29;20218;-84
2023/07/28 08:44:34;;;;;;;2.50;2.28;;;;;;;23.36;63.25;95155.16;4854566;29;20194;-85
2023/07/28 08:47:01;;;;;;;2.63;2.17;;;;;;;22.85;64.02;95175.31;4826776;29;20185;-85
2023/07/28 08:49:47;;;;;;;2.70;2.50;;;;;;;22.71;63.05;95169.47;4844943;29;20217;-83
2023/07/28 08:52:15;;;;;;;4.43;2.53;;;;;;;22.74;62.82;95171.63;4789268;29;20358;-84
2023/07/28 08:54:40;;;;;;;3.15;2.33;;;;;;;22.86;63.92;95176.94;4782680;29;20190;-84
2023/07/28 08:57:06;;;;;;;3.38;2.80;;;;;;;22.99;62.50;95165.28;4795874;29;20205;-83
2023/07/28 08:59:31;;;;;;;3.35;2.78;;;;;;;23.15;61.79;95169.84;4787437;29;20431;-86
2023/07/28 09:01:59;;;;;;;3.22;2.92;;;;;;;23.32;61.49;95173.38;4790773;29;20234;-83
2023/07/28 09:04:24;;;;;;;2.80;2.60;;;;;;;23.06;61.75;95173.91;4808483;29;20887;-83
2023/07/28 09:06:50;;;;;;;3.38;2.45;;;;;;;23.14;61.56;95173.50;4787295;29;20244;-85
2023/07/28 09:09:18;;;;;;;2.90;2.60;;;;;;;23.33;61.67;95176.81;4797753;29;20265;-84
2023/07/28 09:11:45;;;;;;;3.35;2.70;;;;;;;23.68;60.01;95180.16;4796404;29;20190;-83
2023/07/28 09:14:16;;;;;;;2.50;2.20;;;;;;;23.62;59.33;95173.16;4810907;29;20592;-84
2023/07/28 09:16:44;;;;;;;3.15;2.25;;;;;;;23.71;59.44;95184.19;4794695;29;20570;-83
2023/07/28 09:19:10;;;;;;;2.97;2.40;;;;;;;23.38;60.31;95185.66;4794940;29;20194;-85
2023/07/28 09:21:40;;;;;;;2.47;2.28;;;;;;;23.81;59.79;95183.53;4794154;29;20340;-85
2023/07/28 09:24:13;;;;;;;2.70;2.50;;;;;;;23.31;60.63;95181.53;4796725;29;20271;-84
2023/07/28 09:26:42;;;;;;;5.60;2.55;;;;;;;23.32;60.16;95177.84;4793255;29;20225;-84
2023/07/28 09:29:15;;;;;;;3.63;2.15;;;;;;;23.58;60.02;95173.81;4799014;29;20568;-84
2023/07/28 09:31:41;;;;;;;2.53;1.77;;;;;;;23.24;60.69;95179.03;4836365;29;20197;-84
2023/07/28 09:34:08;;;;;;;2.40;2.10;;;;;;;23.31;61.13;95174.38;4828490;29;20671;-85
2023/07/28 09:36:34;;;;;;;1.92;1.80;;;;;;;23.55;60.70;95179.59;4846226;29;20186;-84
2023/07/28 09:39:01;;;;;;;2.58;2.38;;;;;;;23.69;60.19;95176.47;4829621;29;20213;-84
2023/07/28 09:41:29;;;;;;;2.55;1.67;;;;;;;23.60;60.70;95179.75;4830930;29;20205;-84
2023/07/28 09:43:57;;;;;;;1.70;1.60;;;;;;;23.54;60.61;95178.00;4828581;29;20213;-84
2023/07/28 09:46:24;;;;;;;1.90;1.70;;;;;;;23.62;60.26;95190.91;4830361;29;20748;-84
2023/07/28 09:48:52;;;;;;;3.10;1.75;;;;;;;23.62;61.13;95182.94;4825754;29;20698;-85
2023/07/28 09:51:19;;;;;;;2.00;1.85;;;;;;;23.87;59.75;95187.91;4829487;29;20201;-84
2023/07/28 09:53:48;;;;;;;1.92;1.58;;;;;;;24.12;59.64;95193.63;4843130;29;20205;-84
2023/07/28 09:56:18;;;;;;;1.50;1.40;;;;;;;23.87;59.43;95188.72;4823810;29;20215;-84
2023/07/28 09:58:49;;;;;;;2.15;1.52;;;;;;;23.59;59.58;95196.63;4831268;29;20218;-84
2023/07/28 10:01:15;;;;;;;1.55;1.30;;;;;;;23.45;59.71;95185.53;4844012;29;20209;-85
2023/07/28 10:03:41;;;;;;;1.58;1.40;;;;;;;23.95;59.22;95188.31;4914841;23;20259;-85
2023/07/28 10:06:06;;;;;;;1.70;1.60;;;;;;;24.38;57.87;95194.03;4864964;29;20192;-84
2023/07/28 10:08:32;;;;;;;2.17;1.70;;;;;;;24.52;56.62;95195.34;4864339;29;20216;-84
2023/07/28 10:10:58;;;;;;;2.00;1.65;;;;;;;24.80;56.88;95194.41;4862715;29;20191;-85
2023/07/28 10:13:23;;;;;;;2.55;1.90;;;;;;;25.02;54.63;95194.44;4858628;29;20209;-84
2023/07/28 10:15:49;;;;;;;1.65;1.55;;;;;;;24.82;54.94;95194.94;4868086;29;20220;-86
2023/07/28 10:18:15;;;;;;;1.98;1.77;;;;;;;24.70;56.20;95196.91;4868468;29;20275;-85
2023/07/28 10:20:43;;;;;;;1.85;1.60;;;;;;;24.45;56.48;95214.06;4843076;29;20249;-85
2023/07/28 10:23:22;;;;;;;1.52;1.42;;;;;;;23.85;57.71;95197.91;4860914;29;20215;-85
2023/07/28 10:25:56;;;;;;;1.65;1.38;;;;;;;23.85;58.38;95203.22;4861090;29;20221;-86
2023/07/28 10:28:34;;;;;;;2.35;1.50;;;;;;;23.81;58.04;95196.81;4839542;29;20212;-85
2023/07/28 10:31:00;;;;;;;2.03;1.80;;;;;;;23.84;58.06;95194.47;4844157;29;20267;-84
2023/07/28 10:33:31;;;;;;;1.98;1.67;;;;;;;24.41;57.31;95204.19;4858591;29;20215;-85
2023/07/28 10:35:58;;;;;;;3.75;2.28;;;;;;;24.44;55.84;95201.03;4845972;29;20192;-85
2023/07/28 10:38:31;;;;;;;1.88;1.77;;;;;;;25.02;55.78;95205.91;4836268;29;20193;-84
2023/07/28 10:41:08;;;;;;;2.20;2.00;;;;;;;25.11;55.83;95199.09;4859276;29;20212;-84
2023/07/28 10:43:34;;;;;;;2.40;1.90;;;;;;;25.14;55.19;95208.44;4846477;29;20212;-85
2023/07/28 10:46:00;;;;;;;1.88;1.63;;;;;;;25.08;54.51;95209.41;4845610;29;20620;-84
2023/07/28 10:48:25;;;;;;;3.42;1.67;;;;;;;24.41;55.68;95217.47;4843465;29;20189;-84
2023/07/28 10:50:51;;;;;;;2.13;1.70;;;;;;;24.47;55.67;95214.66;4855736;29;20189;-82
2023/07/28 10:53:16;;;;;;;1.80;1.70;;;;;;;24.66;55.51;95201.91;4852130;29;20245;-87
2023/07/28 10:55:42;;;;;;;2.53;2.00;;;;;;;24.58;55.57;95208.44;4846274;29;20245;-86
2023/07/28 10:58:07;;;;;;;1.98;1.88;;;;;;;25.12;54.18;95207.88;4821899;29;20259;-86
2023/07/28 11:00:32;;;;;;;1.80;1.70;;;;;;;25.34;54.10;95218.50;4842664;29;20684;-86
2023/07/28 11:03:11;;;;;;;1.92;1.75;;;;;;;24.89;54.44;95214.16;4850665;29;20308;-86
2023/07/28 11:05:39;;;;;;;2.67;1.80;;;;;;;24.89;55.03;95216.81;4836028;29;20247;-87
2023/07/28 11:08:07;;;;;;;2.20;2.00;;;;;;;24.83;55.52;95223.94;4850070;29;20208;-86
2023/07/28 11:10:33;;;;;;;2.75;2.17;;;;;;;24.95;54.81;95218.50;4845881;29;20249;-86
2023/07/28 11:13:01;;;;;;;2.10;1.90;;;;;;;25.02;54.38;95221.84;4857034;29;20244;-86
2023/07/28 11:15:27;;;;;;;2.00;1.88;;;;;;;24.93;54.48;95219.81;4853033;29;20207;-87
2023/07/28 11:17:52;;;;;;;2.40;2.20;;;;;;;25.28;53.92;95217.66;4837360;29;20197;-86
2023/07/28 11:20:23;;;;;;;3.40;2.13;;;;;;;25.22;52.75;95215.97;4854232;29;20702;-87
2023/07/28 11:22:54;;;;;;;3.60;2.22;;;;;;;25.13;54.12;95214.78;4842888;29;20292;-87
2023/07/28 11:25:20;;;;;;;3.20;2.90;;;;;;;25.74;52.45;95222.69;4838521;29;20197;-86
2023/07/28 11:27:46;;;;;;;4.63;2.28;;;;;;;25.69;52.82;95223.41;4851170;29;20279;-86
2023/07/28 11:30:12;;;;;;;2.67;2.20;;;;;;;25.35;52.44;95222.75;4852022;29;20341;-87
2023/07/28 11:32:37;;;;;;;3.15;2.35;;;;;;;25.23;55.98;95219.44;4835626;29;20208;-87
2023/07/28 11:35:07;;;;;;;4.90;2.67;;;;;;;24.92;58.52;95212.91;4854851;29;20727;-85
2023/07/28 11:37:33;;;;;;;4.55;2.72;;;;;;;24.61;59.07;95220.41;4832747;29;20261;-84
2023/07/28 11:40:00;;;;;;;4.05;2.40;;;;;;;24.05;61.77;95218.69;4848947;29;20591;-84
2023/07/28 11:42:26;;;;;;;2.60;2.40;;;;;;;23.90;63.91;95214.72;4847061;29;20215;-83
2023/07/28 11:44:52;;;;;;;4.68;2.50;;;;;;;23.90;63.16;95220.03;4841569;29;20620;-83
2023/07/28 11:47:18;;;;;;;3.00;2.60;;;;;;;23.96;64.80;95221.75;4840137;29;20258;-83
2023/07/28 11:49:53;;;;;;;2.60;2.40;;;;;;;23.42;62.42;95221.25;4856855;29;20195;-83
2023/07/28 11:52:19;;;;;;;4.93;2.67;;;;;;;23.35;63.34;95217.13;4836970;29;20219;-83
2023/07/28 11:54:44;;;;;;;3.03;2.75;;;;;;;23.34;65.00;95223.47;4849496;29;20190;-83
2023/07/28 11:57:10;;;;;;;3.72;2.97;;;;;;;23.28;64.34;95225.19;4836456;29;20283;-84
2023/07/28 11:59:35;;;;;;;3.35;2.60;;;;;;;22.82;66.50;95220.75;4857534;29;20275;-83
2023/07/28 12:02:02;;;;;;;3.10;2.88;;;;;;;22.68;68.03;95222.03;4845682;29;20218;-83
2023/07/28 12:04:30;;;;;;;3.67;2.28;;;;;;;22.63;68.22;95221.94;4849569;29;20192;-83
2023/07/28 12:07:07;;;;;;;4.50;2.80;;;;;;;22.35;69.88;95223.38;4850405;29;20188;-83
2023/07/28 12:09:58;;;;;;;3.10;2.80;;;;;;;22.42;70.33;95221.44;4853438;29;20305;-83
2023/07/28 12:12:26;;;;;;;4.00;2.85;;;;;;;22.33;70.98;95226.25;4867538;29;20260;-85
2023/07/28 12:14:51;;;;;;;3.05;2.78;;;;;;;22.30;71.73;95221.44;4844995;29;20261;-83
2023/07/28 12:17:18;;;;;;;6.40;2.90;;;;;;;22.16;73.23;95219.22;4857069;29;20595;-82
2023/07/28 12:20:13;;;;;;;3.47;3.17;;;;;;;21.91;73.15;95212.28;4847480;29;20229;-83
2023/07/28 12:22:42;;;;;;;5.25;2.75;;;;;;;22.12;72.63;95216.25;4840947;29;20273;-83
2023/07/28 12:25:08;;;;;;;4.60;3.30;;;;;;;22.26;74.13;95209.72;4861315;29;20196;-84
2023/07/28 12:27:33;;;;;;;5.20;3.08;;;;;;;22.24;73.88;95219.69;4853003;29;20594;-83
2023/07/28 12:29:59;;;;;;;4.78;3.30;;;;;;;21.84;73.30;95206.25;4840022;29;20181;-83
2023/07/28 12:32:24;;;;;;;3.40;3.05;;;;;;;22.19;74.55;95214.31;4835476;29;20205;-84
2023/07/28 12:34:50;;;;;;;2.97;2.78;;;;;;;22.00;71.82;95215.41;4845646;29;20631;-82
2023/07/28 12:37:16;;;;;;;2.90;2.70;;;;;;;22.13;72.17;95214.41;4845376;29;20184;-83
2023/07/28 12:39:42;;;;;;;3.03;2.83;;;;;;;22.11;74.49;95217.28;4837159;29;20208;-83
2023/07/28 12:42:08;;;;;;;3.40;2.78;;;;;;;22.01;72.37;95211.72;4851846;29;20698;-83